sensor_id;sensor_type;location;lat;lon;timestamp;temperature;humidity
74416;SHT31;62850;42.428;25.618;2022-09-09T00:00:24;18.77;62.98
74416;SHT31;62850;42.428;25.618;2022-09-09T00:03:02;18.75;62.25
74416;SHT31;62850;42.428;25.618;2022-09-09T00:08:22;18.63;61.17
74416;SHT31;62850;42.428;25.618;2022-09-09T00:10:58;18.71;60.92
74416;SHT31;62850;42.428;25.618;2022-09-09T00:13:37;18.69;61.45
74416;SHT31;62850;42.428;25.618;2022-09-09T00:16:27;18.79;59.39
74416;SHT31;62850;42.428;25.618;2022-09-09T00:19:07;18.89;58.97
74416;SHT31;62850;42.428;25.618;2022-09-09T00:21:36;18.79;59.58
74416;SHT31;62850;42.428;25.618;2022-09-09T00:25:00;18.85;59.91
74416;SHT31;62850;42.428;25.618;2022-09-09T00:27:32;18.78;59.36
74416;SHT31;62850;42.428;25.618;2022-09-09T00:30:20;18.85;58.17
74416;SHT31;62850;42.428;25.618;2022-09-09T00:32:49;18.95;58.85
74416;SHT31;62850;42.428;25.618;2022-09-09T00:37:46;19.04;59.12
74416;SHT31;62850;42.428;25.618;2022-09-09T00:40:35;18.98;59.08
74416;SHT31;62850;42.428;25.618;2022-09-09T00:46:09;18.69;59.91
74416;SHT31;62850;42.428;25.618;2022-09-09T00:53:58;18.48;60.63
74416;SHT31;62850;42.428;25.618;2022-09-09T00:56:38;18.46;60.77
74416;SHT31;62850;42.428;25.618;2022-09-09T01:01:48;18.36;60.27
74416;SHT31;62850;42.428;25.618;2022-09-09T01:04:22;18.46;59.86
74416;SHT31;62850;42.428;25.618;2022-09-09T01:06:55;18.48;60.22
74416;SHT31;62850;42.428;25.618;2022-09-09T01:12:02;18.30;60.41
74416;SHT31;62850;42.428;25.618;2022-09-09T01:17:04;18.37;59.89
74416;SHT31;62850;42.428;25.618;2022-09-09T01:20:03;18.36;59.57
74416;SHT31;62850;42.428;25.618;2022-09-09T01:27:54;18.61;59.42
74416;SHT31;62850;42.428;25.618;2022-09-09T01:30:21;18.60;59.33
74416;SHT31;62850;42.428;25.618;2022-09-09T01:32:50;18.55;59.58
74416;SHT31;62850;42.428;25.618;2022-09-09T01:35:37;18.34;59.86
74416;SHT31;62850;42.428;25.618;2022-09-09T01:38:03;18.38;59.75
74416;SHT31;62850;42.428;25.618;2022-09-09T01:40:29;18.40;60.05
74416;SHT31;62850;42.428;25.618;2022-09-09T01:42:55;18.41;60.07
74416;SHT31;62850;42.428;25.618;2022-09-09T01:45:21;18.41;59.77
74416;SHT31;62850;42.428;25.618;2022-09-09T01:47:47;18.46;60.15
74416;SHT31;62850;42.428;25.618;2022-09-09T01:50:15;18.47;59.98
74416;SHT31;62850;42.428;25.618;2022-09-09T01:52:43;18.44;59.98
74416;SHT31;62850;42.428;25.618;2022-09-09T01:55:09;18.34;59.87
74416;SHT31;62850;42.428;25.618;2022-09-09T02:00:33;18.34;60.29
74416;SHT31;62850;42.428;25.618;2022-09-09T02:03:25;18.27;60.03
74416;SHT31;62850;42.428;25.618;2022-09-09T02:08:49;18.09;60.69
74416;SHT31;62850;42.428;25.618;2022-09-09T02:11:20;18.07;60.71
74416;SHT31;62850;42.428;25.618;2022-09-09T02:13:48;18.13;60.82
74416;SHT31;62850;42.428;25.618;2022-09-09T02:19:11;18.14;60.58
74416;SHT31;62850;42.428;25.618;2022-09-09T02:21:41;18.09;61.00
74416;SHT31;62850;42.428;25.618;2022-09-09T02:24:08;17.97;61.26
74416;SHT31;62850;42.428;25.618;2022-09-09T02:26:39;17.93;61.37
74416;SHT31;62850;42.428;25.618;2022-09-09T02:29:09;17.95;61.62
74416;SHT31;62850;42.428;25.618;2022-09-09T02:31:36;17.96;61.49
74416;SHT31;62850;42.428;25.618;2022-09-09T02:34:03;17.93;61.69
74416;SHT31;62850;42.428;25.618;2022-09-09T02:36:32;17.97;61.92
74416;SHT31;62850;42.428;25.618;2022-09-09T02:38:59;18.00;61.65
74416;SHT31;62850;42.428;25.618;2022-09-09T02:41:34;17.93;61.81
74416;SHT31;62850;42.428;25.618;2022-09-09T02:44:00;17.96;61.67
74416;SHT31;62850;42.428;25.618;2022-09-09T02:49:15;18.00;61.75
74416;SHT31;62850;42.428;25.618;2022-09-09T02:51:56;17.82;62.27
74416;SHT31;62850;42.428;25.618;2022-09-09T02:54:30;17.81;62.16
74416;SHT31;62850;42.428;25.618;2022-09-09T02:57:05;17.81;62.51
74416;SHT31;62850;42.428;25.618;2022-09-09T02:59:32;17.76;62.70
74416;SHT31;62850;42.428;25.618;2022-09-09T03:01:57;17.75;62.71
74416;SHT31;62850;42.428;25.618;2022-09-09T03:04:23;17.74;62.80
74416;SHT31;62850;42.428;25.618;2022-09-09T03:06:50;17.71;62.95
74416;SHT31;62850;42.428;25.618;2022-09-09T03:09:15;17.68;62.91
74416;SHT31;62850;42.428;25.618;2022-09-09T03:11:41;17.64;63.29
74416;SHT31;62850;42.428;25.618;2022-09-09T03:14:07;17.59;63.23
74416;SHT31;62850;42.428;25.618;2022-09-09T03:16:32;17.65;63.05
74416;SHT31;62850;42.428;25.618;2022-09-09T03:19:00;17.64;62.89
74416;SHT31;62850;42.428;25.618;2022-09-09T03:21:26;17.61;63.10
74416;SHT31;62850;42.428;25.618;2022-09-09T03:23:51;17.58;63.65
74416;SHT31;62850;42.428;25.618;2022-09-09T03:26:17;17.57;63.52
74416;SHT31;62850;42.428;25.618;2022-09-09T03:28:43;17.61;63.27
74416;SHT31;62850;42.428;25.618;2022-09-09T03:31:10;17.61;63.31
74416;SHT31;62850;42.428;25.618;2022-09-09T03:33:37;17.59;63.51
74416;SHT31;62850;42.428;25.618;2022-09-09T03:36:03;17.57;63.77
74416;SHT31;62850;42.428;25.618;2022-09-09T03:38:28;17.57;63.85
74416;SHT31;62850;42.428;25.618;2022-09-09T03:40:57;17.42;64.26
74416;SHT31;62850;42.428;25.618;2022-09-09T03:43:24;17.38;64.03
74416;SHT31;62850;42.428;25.618;2022-09-09T03:45:50;17.48;64.40
74416;SHT31;62850;42.428;25.618;2022-09-09T03:48:16;17.41;64.18
74416;SHT31;62850;42.428;25.618;2022-09-09T03:50:50;17.42;64.23
74416;SHT31;62850;42.428;25.618;2022-09-09T03:53:18;17.47;63.96
74416;SHT31;62850;42.428;25.618;2022-09-09T03:55:51;17.52;63.63
74416;SHT31;62850;42.428;25.618;2022-09-09T03:58:21;17.48;64.06
74416;SHT31;62850;42.428;25.618;2022-09-09T04:00:58;17.42;64.34
74416;SHT31;62850;42.428;25.618;2022-09-09T04:03:24;17.41;64.45
74416;SHT31;62850;42.428;25.618;2022-09-09T04:05:54;17.49;64.34
74416;SHT31;62850;42.428;25.618;2022-09-09T04:08:21;17.49;64.10
74416;SHT31;62850;42.428;25.618;2022-09-09T04:10:48;17.57;63.87
74416;SHT31;62850;42.428;25.618;2022-09-09T04:13:17;17.54;64.26
74416;SHT31;62850;42.428;25.618;2022-09-09T04:15:44;17.58;64.81
74416;SHT31;62850;42.428;25.618;2022-09-09T04:18:10;17.58;64.92
74416;SHT31;62850;42.428;25.618;2022-09-09T04:20:37;17.51;65.45
74416;SHT31;62850;42.428;25.618;2022-09-09T04:23:03;17.54;65.12
74416;SHT31;62850;42.428;25.618;2022-09-09T04:25:29;17.59;65.21
74416;SHT31;62850;42.428;25.618;2022-09-09T04:27:55;17.64;64.88
74416;SHT31;62850;42.428;25.618;2022-09-09T04:30:21;17.68;65.15
74416;SHT31;62850;42.428;25.618;2022-09-09T04:32:47;17.65;64.49
74416;SHT31;62850;42.428;25.618;2022-09-09T04:35:13;17.69;64.02
74416;SHT31;62850;42.428;25.618;2022-09-09T04:37:38;17.69;65.21
74416;SHT31;62850;42.428;25.618;2022-09-09T04:40:04;17.71;66.16
74416;SHT31;62850;42.428;25.618;2022-09-09T04:42:30;17.78;65.64
74416;SHT31;62850;42.428;25.618;2022-09-09T04:44:59;17.83;65.82
74416;SHT31;62850;42.428;25.618;2022-09-09T04:47:25;17.89;66.35
74416;SHT31;62850;42.428;25.618;2022-09-09T04:49:50;17.92;65.79
74416;SHT31;62850;42.428;25.618;2022-09-09T04:52:16;17.93;66.09
74416;SHT31;62850;42.428;25.618;2022-09-09T04:54:42;17.97;65.97
74416;SHT31;62850;42.428;25.618;2022-09-09T04:57:10;18.03;65.71
74416;SHT31;62850;42.428;25.618;2022-09-09T05:02:11;18.23;64.97
74416;SHT31;62850;42.428;25.618;2022-09-09T05:04:36;18.36;64.63
74416;SHT31;62850;42.428;25.618;2022-09-09T05:07:02;18.46;63.51
74416;SHT31;62850;42.428;25.618;2022-09-09T05:09:27;18.57;63.53
74416;SHT31;62850;42.428;25.618;2022-09-09T05:11:53;18.63;63.54
74416;SHT31;62850;42.428;25.618;2022-09-09T05:14:18;18.78;62.55
74416;SHT31;62850;42.428;25.618;2022-09-09T05:16:45;18.85;61.61
74416;SHT31;62850;42.428;25.618;2022-09-09T05:19:10;18.92;62.06
74416;SHT31;62850;42.428;25.618;2022-09-09T05:21:36;19.09;62.12
74416;SHT31;62850;42.428;25.618;2022-09-09T05:24:02;19.23;60.69
74416;SHT31;62850;42.428;25.618;2022-09-09T05:26:28;19.35;59.94
74416;SHT31;62850;42.428;25.618;2022-09-09T05:28:54;19.40;60.87
74416;SHT31;62850;42.428;25.618;2022-09-09T05:31:20;19.52;59.21
74416;SHT31;62850;42.428;25.618;2022-09-09T05:33:47;19.54;59.11
74416;SHT31;62850;42.428;25.618;2022-09-09T05:36:19;19.70;58.54
74416;SHT31;62850;42.428;25.618;2022-09-09T05:38:45;19.83;58.46
74416;SHT31;62850;42.428;25.618;2022-09-09T05:41:11;19.90;58.92
74416;SHT31;62850;42.428;25.618;2022-09-09T05:43:38;19.94;59.08
74416;SHT31;62850;42.428;25.618;2022-09-09T05:46:10;19.95;59.13
74416;SHT31;62850;42.428;25.618;2022-09-09T05:48:43;20.05;59.05
74416;SHT31;62850;42.428;25.618;2022-09-09T05:51:16;20.07;59.66
74416;SHT31;62850;42.428;25.618;2022-09-09T05:53:42;20.15;59.32
74416;SHT31;62850;42.428;25.618;2022-09-09T05:56:10;20.21;59.55
74416;SHT31;62850;42.428;25.618;2022-09-09T05:58:37;20.26;59.36
74416;SHT31;62850;42.428;25.618;2022-09-09T06:03:28;20.39;58.00
74416;SHT31;62850;42.428;25.618;2022-09-09T06:06:00;20.43;58.18
74416;SHT31;62850;42.428;25.618;2022-09-09T06:08:26;20.55;57.87
74416;SHT31;62850;42.428;25.618;2022-09-09T06:10:52;20.66;57.69
74416;SHT31;62850;42.428;25.618;2022-09-09T06:13:18;20.69;55.87
74416;SHT31;62850;42.428;25.618;2022-09-09T06:15:52;20.79;56.61
74416;SHT31;62850;42.428;25.618;2022-09-09T06:18:18;20.83;56.88
74416;SHT31;62850;42.428;25.618;2022-09-09T06:21:04;20.89;56.66
74416;SHT31;62850;42.428;25.618;2022-09-09T06:23:32;20.99;56.84
74416;SHT31;62850;42.428;25.618;2022-09-09T06:26:06;21.10;56.60
74416;SHT31;62850;42.428;25.618;2022-09-09T06:28:33;21.14;56.54
74416;SHT31;62850;42.428;25.618;2022-09-09T06:31:05;21.23;56.89
74416;SHT31;62850;42.428;25.618;2022-09-09T06:33:35;21.28;56.12
74416;SHT31;62850;42.428;25.618;2022-09-09T06:36:03;21.31;56.05
74416;SHT31;62850;42.428;25.618;2022-09-09T06:38:31;21.31;56.68
74416;SHT31;62850;42.428;25.618;2022-09-09T06:40:59;21.35;57.15
74416;SHT31;62850;42.428;25.618;2022-09-09T06:43:25;21.41;57.32
74416;SHT31;62850;42.428;25.618;2022-09-09T06:45:56;21.47;57.54
74416;SHT31;62850;42.428;25.618;2022-09-09T06:48:22;21.57;57.15
74416;SHT31;62850;42.428;25.618;2022-09-09T06:50:47;21.62;57.80
74416;SHT31;62850;42.428;25.618;2022-09-09T06:53:17;21.74;56.82
74416;SHT31;62850;42.428;25.618;2022-09-09T06:55:45;21.68;56.53
74416;SHT31;62850;42.428;25.618;2022-09-09T06:58:10;21.75;56.82
74416;SHT31;62850;42.428;25.618;2022-09-09T07:00:36;21.77;56.73
74416;SHT31;62850;42.428;25.618;2022-09-09T07:03:04;21.77;56.12
74416;SHT31;62850;42.428;25.618;2022-09-09T07:05:31;21.81;56.31
74416;SHT31;62850;42.428;25.618;2022-09-09T07:07:56;21.85;56.34
74416;SHT31;62850;42.428;25.618;2022-09-09T07:10:22;21.90;56.68
74416;SHT31;62850;42.428;25.618;2022-09-09T07:12:51;21.99;56.42
74416;SHT31;62850;42.428;25.618;2022-09-09T07:15:18;22.03;56.35
74416;SHT31;62850;42.428;25.618;2022-09-09T07:17:48;22.14;56.16
74416;SHT31;62850;42.428;25.618;2022-09-09T07:20:14;22.32;56.26
74416;SHT31;62850;42.428;25.618;2022-09-09T07:22:40;22.49;56.32
74416;SHT31;62850;42.428;25.618;2022-09-09T07:25:07;22.71;55.16
74416;SHT31;62850;42.428;25.618;2022-09-09T07:27:33;23.16;54.14
74416;SHT31;62850;42.428;25.618;2022-09-09T07:29:58;23.57;53.28
74416;SHT31;62850;42.428;25.618;2022-09-09T07:32:24;23.94;52.20
74416;SHT31;62850;42.428;25.618;2022-09-09T07:34:51;24.25;51.51
74416;SHT31;62850;42.428;25.618;2022-09-09T07:37:16;24.52;50.32
74416;SHT31;62850;42.428;25.618;2022-09-09T07:39:42;24.80;49.80
74416;SHT31;62850;42.428;25.618;2022-09-09T07:42:09;25.00;49.12
74416;SHT31;62850;42.428;25.618;2022-09-09T07:44:36;25.10;48.93
74416;SHT31;62850;42.428;25.618;2022-09-09T07:47:02;25.26;48.09
74416;SHT31;62850;42.428;25.618;2022-09-09T07:49:28;25.37;48.86
74416;SHT31;62850;42.428;25.618;2022-09-09T07:51:54;25.64;48.33
74416;SHT31;62850;42.428;25.618;2022-09-09T07:54:20;25.74;48.24
74416;SHT31;62850;42.428;25.618;2022-09-09T07:56:46;25.78;47.58
74416;SHT31;62850;42.428;25.618;2022-09-09T07:59:12;25.88;47.52
74416;SHT31;62850;42.428;25.618;2022-09-09T08:01:43;25.88;46.67
74416;SHT31;62850;42.428;25.618;2022-09-09T08:04:12;25.85;47.24
74416;SHT31;62850;42.428;25.618;2022-09-09T08:06:53;25.77;46.57
74416;SHT31;62850;42.428;25.618;2022-09-09T08:09:19;25.78;46.47
74416;SHT31;62850;42.428;25.618;2022-09-09T08:11:45;25.65;46.89
74416;SHT31;62850;42.428;25.618;2022-09-09T08:14:11;25.75;46.93
74416;SHT31;62850;42.428;25.618;2022-09-09T08:16:40;25.74;46.93
74416;SHT31;62850;42.428;25.618;2022-09-09T08:19:06;25.77;46.71
74416;SHT31;62850;42.428;25.618;2022-09-09T08:21:35;25.91;46.37
74416;SHT31;62850;42.428;25.618;2022-09-09T08:24:02;26.06;46.58
74416;SHT31;62850;42.428;25.618;2022-09-09T08:26:33;26.19;46.21
74416;SHT31;62850;42.428;25.618;2022-09-09T08:29:01;26.29;45.90
74416;SHT31;62850;42.428;25.618;2022-09-09T08:31:37;26.28;45.25
74416;SHT31;62850;42.428;25.618;2022-09-09T08:34:03;26.35;45.28
74416;SHT31;62850;42.428;25.618;2022-09-09T08:36:33;26.54;45.23
74416;SHT31;62850;42.428;25.618;2022-09-09T08:38:59;26.60;44.72
74416;SHT31;62850;42.428;25.618;2022-09-09T08:52:28;27.43;44.17
74416;SHT31;62850;42.428;25.618;2022-09-09T08:54:57;27.48;43.60
74416;SHT31;62850;42.428;25.618;2022-09-09T08:57:26;27.55;43.80
74416;SHT31;62850;42.428;25.618;2022-09-09T08:59:54;27.63;43.88
74416;SHT31;62850;42.428;25.618;2022-09-09T09:02:44;27.79;43.85
74416;SHT31;62850;42.428;25.618;2022-09-09T09:10:48;28.07;42.72
74416;SHT31;62850;42.428;25.618;2022-09-09T09:13:19;28.08;42.73
74416;SHT31;62850;42.428;25.618;2022-09-09T09:15:52;28.10;42.31
74416;SHT31;62850;42.428;25.618;2022-09-09T09:18:19;28.27;42.49
74416;SHT31;62850;42.428;25.618;2022-09-09T09:23:19;28.41;42.31
74416;SHT31;62850;42.428;25.618;2022-09-09T09:25:46;28.55;42.14
74416;SHT31;62850;42.428;25.618;2022-09-09T09:28:16;28.65;41.57
74416;SHT31;62850;42.428;25.618;2022-09-09T09:31:07;28.74;40.97
74416;SHT31;62850;42.428;25.618;2022-09-09T09:33:53;28.71;41.27
74416;SHT31;62850;42.428;25.618;2022-09-09T09:36:21;28.75;40.93
74416;SHT31;62850;42.428;25.618;2022-09-09T09:44:01;29.19;40.70
74416;SHT31;62850;42.428;25.618;2022-09-09T09:46:27;29.23;39.70
74416;SHT31;62850;42.428;25.618;2022-09-09T09:49:08;29.31;39.90
74416;SHT31;62850;42.428;25.618;2022-09-09T09:51:34;29.44;39.52
74416;SHT31;62850;42.428;25.618;2022-09-09T09:56:48;29.49;39.54
74416;SHT31;62850;42.428;25.618;2022-09-09T09:59:40;29.71;38.75
74416;SHT31;62850;42.428;25.618;2022-09-09T10:02:17;29.77;38.70
74416;SHT31;62850;42.428;25.618;2022-09-09T10:04:43;29.91;39.36
74416;SHT31;62850;42.428;25.618;2022-09-09T10:07:18;29.92;38.67
74416;SHT31;62850;42.428;25.618;2022-09-09T10:09:44;30.11;38.45
74416;SHT31;62850;42.428;25.618;2022-09-09T10:22:44;29.67;38.29
74416;SHT31;62850;42.428;25.618;2022-09-09T10:25:22;29.60;38.71
74416;SHT31;62850;42.428;25.618;2022-09-09T10:33:10;30.09;38.18
74416;SHT31;62850;42.428;25.618;2022-09-09T10:38:16;30.49;37.26
74416;SHT31;62850;42.428;25.618;2022-09-09T10:43:32;30.49;37.27
74416;SHT31;62850;42.428;25.618;2022-09-09T10:46:09;30.52;36.74
74416;SHT31;62850;42.428;25.618;2022-09-09T10:57:09;30.62;36.23
74416;SHT31;62850;42.428;25.618;2022-09-09T10:59:46;30.86;36.21
74416;SHT31;62850;42.428;25.618;2022-09-09T11:02:14;31.01;36.24
74416;SHT31;62850;42.428;25.618;2022-09-09T11:04:48;31.25;35.53
74416;SHT31;62850;42.428;25.618;2022-09-09T11:07:25;31.32;35.34
74416;SHT31;62850;42.428;25.618;2022-09-09T11:09:56;31.20;35.58
74416;SHT31;62850;42.428;25.618;2022-09-09T11:12:23;31.20;34.96
74416;SHT31;62850;42.428;25.618;2022-09-09T11:14:59;31.38;34.92
74416;SHT31;62850;42.428;25.618;2022-09-09T11:17:56;31.35;34.52
74416;SHT31;62850;42.428;25.618;2022-09-09T11:20:22;31.42;35.20
74416;SHT31;62850;42.428;25.618;2022-09-09T11:22:51;31.76;34.37
74416;SHT31;62850;42.428;25.618;2022-09-09T11:25:31;31.86;33.99
74416;SHT31;62850;42.428;25.618;2022-09-09T11:41:45;32.60;32.62
74416;SHT31;62850;42.428;25.618;2022-09-09T11:44:20;32.74;32.53
74416;SHT31;62850;42.428;25.618;2022-09-09T11:46:50;32.56;32.90
74416;SHT31;62850;42.428;25.618;2022-09-09T11:51:53;32.20;32.58
74416;SHT31;62850;42.428;25.618;2022-09-09T11:54:32;32.14;33.08
74416;SHT31;62850;42.428;25.618;2022-09-09T11:56:59;32.03;33.88
74416;SHT31;62850;42.428;25.618;2022-09-09T11:59:27;31.92;33.37
74416;SHT31;62850;42.428;25.618;2022-09-09T12:02:13;31.82;34.30
74416;SHT31;62850;42.428;25.618;2022-09-09T12:05:05;31.75;35.63
74416;SHT31;62850;42.428;25.618;2022-09-09T12:07:41;31.65;34.61
74416;SHT31;62850;42.428;25.618;2022-09-09T12:12:35;31.46;34.90
74416;SHT31;62850;42.428;25.618;2022-09-09T12:17:41;31.38;35.44
74416;SHT31;62850;42.428;25.618;2022-09-09T12:31:06;31.59;35.64
74416;SHT31;62850;42.428;25.618;2022-09-09T12:33:35;31.55;34.91
74416;SHT31;62850;42.428;25.618;2022-09-09T12:36:01;31.72;35.40
74416;SHT31;62850;42.428;25.618;2022-09-09T12:38:36;31.72;35.30
74416;SHT31;62850;42.428;25.618;2022-09-09T12:41:03;31.85;34.99
74416;SHT31;62850;42.428;25.618;2022-09-09T12:43:29;31.83;34.57
74416;SHT31;62850;42.428;25.618;2022-09-09T12:45:59;31.82;35.34
74416;SHT31;62850;42.428;25.618;2022-09-09T12:48:37;31.73;35.00
74416;SHT31;62850;42.428;25.618;2022-09-09T12:51:16;31.41;35.02
74416;SHT31;62850;42.428;25.618;2022-09-09T12:53:42;31.14;36.51
74416;SHT31;62850;42.428;25.618;2022-09-09T12:56:23;30.90;36.08
74416;SHT31;62850;42.428;25.618;2022-09-09T12:58:52;30.36;35.72
74416;SHT31;62850;42.428;25.618;2022-09-09T13:01:22;30.26;36.64
74416;SHT31;62850;42.428;25.618;2022-09-09T13:03:49;30.31;37.69
74416;SHT31;62850;42.428;25.618;2022-09-09T13:08:52;30.63;37.49
74416;SHT31;62850;42.428;25.618;2022-09-09T13:11:36;30.36;36.56
74416;SHT31;62850;42.428;25.618;2022-09-09T13:14:03;30.31;36.63
74416;SHT31;62850;42.428;25.618;2022-09-09T13:16:32;30.14;36.44
74416;SHT31;62850;42.428;25.618;2022-09-09T13:19:00;30.05;36.42
74416;SHT31;62850;42.428;25.618;2022-09-09T13:21:34;29.89;38.09
74416;SHT31;62850;42.428;25.618;2022-09-09T13:24:00;29.85;38.27
74416;SHT31;62850;42.428;25.618;2022-09-09T13:26:29;29.91;38.15
74416;SHT31;62850;42.428;25.618;2022-09-09T13:29:07;29.77;36.88
74416;SHT31;62850;42.428;25.618;2022-09-09T13:31:36;29.75;38.34
74416;SHT31;62850;42.428;25.618;2022-09-09T13:34:32;29.67;38.37
74416;SHT31;62850;42.428;25.618;2022-09-09T13:37:06;29.64;38.05
74416;SHT31;62850;42.428;25.618;2022-09-09T13:39:33;29.56;37.64
74416;SHT31;62850;42.428;25.618;2022-09-09T13:41:59;29.57;37.33
74416;SHT31;62850;42.428;25.618;2022-09-09T13:44:29;29.54;39.09
74416;SHT31;62850;42.428;25.618;2022-09-09T13:47:17;29.67;38.23
74416;SHT31;62850;42.428;25.618;2022-09-09T13:49:44;30.01;38.60
74416;SHT31;62850;42.428;25.618;2022-09-09T13:52:16;30.05;38.52
74416;SHT31;62850;42.428;25.618;2022-09-09T13:54:49;29.89;36.65
74416;SHT31;62850;42.428;25.618;2022-09-09T13:57:23;29.86;37.73
74416;SHT31;62850;42.428;25.618;2022-09-09T13:59:51;30.32;37.27
74416;SHT31;62850;42.428;25.618;2022-09-09T14:02:17;30.64;36.99
74416;SHT31;62850;42.428;25.618;2022-09-09T14:04:44;30.86;35.77
74416;SHT31;62850;42.428;25.618;2022-09-09T14:07:14;30.82;36.35
74416;SHT31;62850;42.428;25.618;2022-09-09T14:09:41;30.97;34.64
74416;SHT31;62850;42.428;25.618;2022-09-09T14:12:11;31.24;34.46
74416;SHT31;62850;42.428;25.618;2022-09-09T14:14:37;31.08;35.68
74416;SHT31;62850;42.428;25.618;2022-09-09T14:17:03;30.73;36.82
74416;SHT31;62850;42.428;25.618;2022-09-09T14:19:29;30.26;35.40
74416;SHT31;62850;42.428;25.618;2022-09-09T14:21:56;30.05;37.06
74416;SHT31;62850;42.428;25.618;2022-09-09T14:24:22;29.98;35.98
74416;SHT31;62850;42.428;25.618;2022-09-09T14:26:48;30.26;34.97
74416;SHT31;62850;42.428;25.618;2022-09-09T14:29:14;30.39;37.29
74416;SHT31;62850;42.428;25.618;2022-09-09T14:31:40;30.62;37.41
74416;SHT31;62850;42.428;25.618;2022-09-09T14:34:05;30.56;37.10
74416;SHT31;62850;42.428;25.618;2022-09-09T14:36:31;30.36;37.38
74416;SHT31;62850;42.428;25.618;2022-09-09T14:38:57;30.21;36.50
74416;SHT31;62850;42.428;25.618;2022-09-09T14:41:24;30.16;36.68
74416;SHT31;62850;42.428;25.618;2022-09-09T14:43:50;30.21;36.66
74416;SHT31;62850;42.428;25.618;2022-09-09T14:46:18;30.22;36.58
74416;SHT31;62850;42.428;25.618;2022-09-09T14:48:44;30.28;37.38
74416;SHT31;62850;42.428;25.618;2022-09-09T14:51:12;30.05;38.11
74416;SHT31;62850;42.428;25.618;2022-09-09T14:53:39;29.67;39.09
74416;SHT31;62850;42.428;25.618;2022-09-09T14:56:26;29.42;39.12
74416;SHT31;62850;42.428;25.618;2022-09-09T14:58:54;29.02;38.87
74416;SHT31;62850;42.428;25.618;2022-09-09T15:01:20;28.83;39.02
74416;SHT31;62850;42.428;25.618;2022-09-09T15:03:52;28.83;39.05
74416;SHT31;62850;42.428;25.618;2022-09-09T15:06:19;28.74;39.20
74416;SHT31;62850;42.428;25.618;2022-09-09T15:08:46;28.80;39.41
74416;SHT31;62850;42.428;25.618;2022-09-09T15:11:13;28.65;39.15
74416;SHT31;62850;42.428;25.618;2022-09-09T15:13:40;28.59;38.96
74416;SHT31;62850;42.428;25.618;2022-09-09T15:16:08;28.68;39.38
74416;SHT31;62850;42.428;25.618;2022-09-09T15:18:34;28.69;39.56
74416;SHT31;62850;42.428;25.618;2022-09-09T15:21:04;28.65;39.79
74416;SHT31;62850;42.428;25.618;2022-09-09T15:23:34;28.62;40.17
74416;SHT31;62850;42.428;25.618;2022-09-09T15:26:00;28.58;40.36
74416;SHT31;62850;42.428;25.618;2022-09-09T15:28:25;28.51;41.11
74416;SHT31;62850;42.428;25.618;2022-09-09T15:30:52;28.49;41.48
74416;SHT31;62850;42.428;25.618;2022-09-09T15:33:20;28.52;41.95
74416;SHT31;62850;42.428;25.618;2022-09-09T15:35:45;28.45;42.54
74416;SHT31;62850;42.428;25.618;2022-09-09T15:38:11;28.37;43.00
74416;SHT31;62850;42.428;25.618;2022-09-09T15:40:42;28.24;42.68
74416;SHT31;62850;42.428;25.618;2022-09-09T15:43:08;28.18;42.14
74416;SHT31;62850;42.428;25.618;2022-09-09T15:45:35;28.10;42.56
74416;SHT31;62850;42.428;25.618;2022-09-09T15:48:01;27.94;43.24
74416;SHT31;62850;42.428;25.618;2022-09-09T15:50:27;27.92;42.93
74416;SHT31;62850;42.428;25.618;2022-09-09T15:52:54;27.76;42.80
74416;SHT31;62850;42.428;25.618;2022-09-09T15:55:20;27.76;43.19
74416;SHT31;62850;42.428;25.618;2022-09-09T15:57:46;27.70;43.28
74416;SHT31;62850;42.428;25.618;2022-09-09T16:00:12;27.66;43.84
74416;SHT31;62850;42.428;25.618;2022-09-09T16:02:39;27.56;44.31
74416;SHT31;62850;42.428;25.618;2022-09-09T16:05:05;27.41;44.72
74416;SHT31;62850;42.428;25.618;2022-09-09T16:07:31;27.35;45.31
74416;SHT31;62850;42.428;25.618;2022-09-09T16:09:56;27.24;44.82
74416;SHT31;62850;42.428;25.618;2022-09-09T16:12:22;27.22;45.08
74416;SHT31;62850;42.428;25.618;2022-09-09T16:14:47;27.16;45.18
74416;SHT31;62850;42.428;25.618;2022-09-09T16:17:13;27.14;44.84
74416;SHT31;62850;42.428;25.618;2022-09-09T16:19:40;27.11;44.91
74416;SHT31;62850;42.428;25.618;2022-09-09T16:22:06;27.07;45.05
74416;SHT31;62850;42.428;25.618;2022-09-09T16:24:32;27.04;45.53
74416;SHT31;62850;42.428;25.618;2022-09-09T16:26:57;26.95;45.40
74416;SHT31;62850;42.428;25.618;2022-09-09T16:29:23;26.88;45.30
74416;SHT31;62850;42.428;25.618;2022-09-09T16:31:51;26.84;44.95
74416;SHT31;62850;42.428;25.618;2022-09-09T16:34:17;26.88;45.80
74416;SHT31;62850;42.428;25.618;2022-09-09T16:36:44;26.88;45.70
74416;SHT31;62850;42.428;25.618;2022-09-09T16:39:15;26.77;45.45
74416;SHT31;62850;42.428;25.618;2022-09-09T16:41:42;26.77;45.34
74416;SHT31;62850;42.428;25.618;2022-09-09T16:44:10;26.88;45.65
74416;SHT31;62850;42.428;25.618;2022-09-09T16:46:39;26.84;46.00
74416;SHT31;62850;42.428;25.618;2022-09-09T16:49:06;26.80;46.13
74416;SHT31;62850;42.428;25.618;2022-09-09T16:51:35;26.81;46.40
74416;SHT31;62850;42.428;25.618;2022-09-09T16:54:03;26.86;46.64
74416;SHT31;62850;42.428;25.618;2022-09-09T16:56:31;26.83;46.63
74416;SHT31;62850;42.428;25.618;2022-09-09T16:59:05;26.81;46.31
74416;SHT31;62850;42.428;25.618;2022-09-09T17:01:32;26.80;46.17
74416;SHT31;62850;42.428;25.618;2022-09-09T17:04:02;26.81;46.42
74416;SHT31;62850;42.428;25.618;2022-09-09T17:06:29;26.81;46.38
74416;SHT31;62850;42.428;25.618;2022-09-09T17:08:59;26.84;46.71
74416;SHT31;62850;42.428;25.618;2022-09-09T17:11:27;26.80;46.89
74416;SHT31;62850;42.428;25.618;2022-09-09T17:13:53;26.80;47.09
74416;SHT31;62850;42.428;25.618;2022-09-09T17:16:21;26.80;47.31
74416;SHT31;62850;42.428;25.618;2022-09-09T17:18:50;26.80;46.97
74416;SHT31;62850;42.428;25.618;2022-09-09T17:21:19;26.70;46.94
74416;SHT31;62850;42.428;25.618;2022-09-09T17:23:46;26.69;47.16
74416;SHT31;62850;42.428;25.618;2022-09-09T17:26:15;26.60;47.28
74416;SHT31;62850;42.428;25.618;2022-09-09T17:28:42;26.59;47.42
74416;SHT31;62850;42.428;25.618;2022-09-09T17:31:10;26.54;47.10
74416;SHT31;62850;42.428;25.618;2022-09-09T17:33:39;26.51;47.15
74416;SHT31;62850;42.428;25.618;2022-09-09T17:36:29;26.49;46.68
74416;SHT31;62850;42.428;25.618;2022-09-09T17:38:55;26.32;47.29
74416;SHT31;62850;42.428;25.618;2022-09-09T17:41:27;26.29;47.57
74416;SHT31;62850;42.428;25.618;2022-09-09T17:43:53;26.30;47.38